sensor_id;sensor_type;location;lat;lon;timestamp;pressure;altitude;pressure_sealevel;temperature;humidity
42247;BME280;27913;42.722;23.268;2022-10-16T00:00:41;95444.44;;;8.15;78.69
42247;BME280;27913;42.722;23.268;2022-10-16T00:03:08;95528.63;;;8.80;78.80
42247;BME280;27913;42.722;23.268;2022-10-16T00:05:40;95342.81;;;7.51;78.45
42247;BME280;27913;42.722;23.268;2022-10-16T00:08:06;95380.97;;;7.53;78.39
42247;BME280;27913;42.722;23.268;2022-10-16T00:10:32;95480.41;;;7.96;79.06
42247;BME280;27913;42.722;23.268;2022-10-16T00:12:58;95419.38;;;7.44;78.96
42247;BME280;27913;42.722;23.268;2022-10-16T00:15:24;95468.59;;;7.84;78.73
42247;BME280;27913;42.722;23.268;2022-10-16T00:17:49;95472.34;;;7.73;79.35
42247;BME280;27913;42.722;23.268;2022-10-16T00:20:15;95682.31;;;9.08;79.71
42247;BME280;27913;42.722;23.268;2022-10-16T00:22:40;95584.25;;;8.49;79.18
42247;BME280;27913;42.722;23.268;2022-10-16T00:25:06;95351.88;;;7.13;79.14
42247;BME280;27913;42.722;23.268;2022-10-16T00:27:33;95460.84;;;7.66;79.28
42247;BME280;27913;42.722;23.268;2022-10-16T00:29:58;95376.56;;;7.19;80.17
42247;BME280;27913;42.722;23.268;2022-10-16T00:32:24;95355.75;;;7.09;79.50
42247;BME280;27913;42.722;23.268;2022-10-16T00:34:50;95415.06;;;7.35;79.01
42247;BME280;27913;42.722;23.268;2022-10-16T00:37:15;95485.25;;;7.75;79.34
42247;BME280;27913;42.722;23.268;2022-10-16T00:39:41;95469.63;;;7.56;78.67
42247;BME280;27913;42.722;23.268;2022-10-16T00:42:06;95469.00;;;7.63;78.57
42247;BME280;27913;42.722;23.268;2022-10-16T00:44:46;95342.47;;;6.94;79.24
42247;BME280;27913;42.722;23.268;2022-10-16T00:47:28;95527.94;;;8.10;79.79
42247;BME280;27913;42.722;23.268;2022-10-16T00:52:47;95332.34;;;6.99;79.12
42247;BME280;27913;42.722;23.268;2022-10-16T00:55:13;95677.22;;;9.23;79.47
42247;BME280;27913;42.722;23.268;2022-10-16T00:57:39;95689.34;;;9.24;78.83
42247;BME280;27913;42.722;23.268;2022-10-16T01:00:08;95464.03;;;7.86;79.25
42247;BME280;27913;42.722;23.268;2022-10-16T01:05:10;95581.38;;;8.61;78.92
42247;BME280;27913;42.722;23.268;2022-10-16T01:15:14;95530.59;;;8.18;78.90
42247;BME280;27913;42.722;23.268;2022-10-16T01:17:51;95562.78;;;8.45;79.19
42247;BME280;27913;42.722;23.268;2022-10-16T01:20:29;95689.53;;;9.23;79.53
42247;BME280;27913;42.722;23.268;2022-10-16T01:28:52;95612.88;;;8.77;78.71
42247;BME280;27913;42.722;23.268;2022-10-16T01:31:25;95686.06;;;9.14;78.61
42247;BME280;27913;42.722;23.268;2022-10-16T01:34:00;95386.72;;;7.22;78.09
42247;BME280;27913;42.722;23.268;2022-10-16T01:36:39;95686.88;;;9.06;78.73
42247;BME280;27913;42.722;23.268;2022-10-16T01:39:09;95534.47;;;7.97;78.65
42247;BME280;27913;42.722;23.268;2022-10-16T01:41:49;95695.09;;;9.03;78.21
42247;BME280;27913;42.722;23.268;2022-10-16T01:44:21;95683.41;;;8.97;78.32
42247;BME280;27913;42.722;23.268;2022-10-16T01:46:50;95538.63;;;7.82;77.92
42247;BME280;27913;42.722;23.268;2022-10-16T01:49:18;95405.09;;;7.04;79.14
42247;BME280;27913;42.722;23.268;2022-10-16T01:51:48;95686.81;;;8.81;78.70
42247;BME280;27913;42.722;23.268;2022-10-16T01:54:16;95641.88;;;8.41;78.43
42247;BME280;27913;42.722;23.268;2022-10-16T01:56:43;95704.00;;;8.75;79.26
42247;BME280;27913;42.722;23.268;2022-10-16T01:59:12;95664.19;;;8.45;78.69
42247;BME280;27913;42.722;23.268;2022-10-16T02:01:43;95712.16;;;8.64;78.85
42247;BME280;27913;42.722;23.268;2022-10-16T02:04:20;95722.47;;;8.65;79.40
42247;BME280;27913;42.722;23.268;2022-10-16T02:06:46;95631.28;;;8.16;79.61
42247;BME280;27913;42.722;23.268;2022-10-16T02:09:12;95619.28;;;8.05;79.71
42247;BME280;27913;42.722;23.268;2022-10-16T02:11:41;95726.59;;;8.68;79.16
42247;BME280;27913;42.722;23.268;2022-10-16T02:14:07;95727.72;;;8.65;79.44
42247;BME280;27913;42.722;23.268;2022-10-16T02:16:42;95727.41;;;8.68;79.20
42247;BME280;27913;42.722;23.268;2022-10-16T02:19:08;95731.34;;;8.64;79.25
42247;BME280;27913;42.722;23.268;2022-10-16T02:21:51;95416.16;;;6.71;78.88
42247;BME280;27913;42.722;23.268;2022-10-16T02:27:09;95624.25;;;7.81;78.47
42247;BME280;27913;42.722;23.268;2022-10-16T02:29:40;95651.03;;;8.02;78.46
42247;BME280;27913;42.722;23.268;2022-10-16T02:32:10;95730.53;;;8.45;78.96
42247;BME280;27913;42.722;23.268;2022-10-16T02:34:39;95422.41;;;6.51;78.45
42247;BME280;27913;42.722;23.268;2022-10-16T02:37:06;95735.09;;;8.43;78.93
42247;BME280;27913;42.722;23.268;2022-10-16T02:39:33;95713.75;;;8.30;78.64
42247;BME280;27913;42.722;23.268;2022-10-16T02:41:59;95619.41;;;7.68;78.46
42247;BME280;27913;42.722;23.268;2022-10-16T02:44:25;95622.72;;;7.79;78.89
42247;BME280;27913;42.722;23.268;2022-10-16T02:46:51;95458.38;;;6.58;78.66
42247;BME280;27913;42.722;23.268;2022-10-16T02:49:17;95740.97;;;8.37;78.81
42247;BME280;27913;42.722;23.268;2022-10-16T02:51:43;95721.34;;;8.15;79.64
42247;BME280;27913;42.722;23.268;2022-10-16T02:54:09;95627.56;;;7.65;80.51
42247;BME280;27913;42.722;23.268;2022-10-16T02:56:36;95538.16;;;7.07;80.26
42247;BME280;27913;42.722;23.268;2022-10-16T02:59:01;95750.13;;;8.33;80.70
42247;BME280;27913;42.722;23.268;2022-10-16T03:01:27;95750.44;;;8.30;80.16
42247;BME280;27913;42.722;23.268;2022-10-16T03:03:53;95744.78;;;8.16;78.75
42247;BME280;27913;42.722;23.268;2022-10-16T03:06:19;95764.25;;;8.14;78.47
42247;BME280;27913;42.722;23.268;2022-10-16T03:08:45;95749.91;;;8.00;78.04
42247;BME280;27913;42.722;23.268;2022-10-16T03:11:11;95751.50;;;7.92;77.52
42247;BME280;27913;42.722;23.268;2022-10-16T03:13:37;95759.34;;;7.92;77.53
42247;BME280;27913;42.722;23.268;2022-10-16T03:16:03;95752.97;;;7.95;77.33
42247;BME280;27913;42.722;23.268;2022-10-16T03:18:30;95758.88;;;7.97;77.26
42247;BME280;27913;42.722;23.268;2022-10-16T03:20:56;95514.97;;;6.49;77.64
42247;BME280;27913;42.722;23.268;2022-10-16T03:23:22;95747.69;;;7.87;76.93
42247;BME280;27913;42.722;23.268;2022-10-16T03:25:48;95764.50;;;7.84;77.25
42247;BME280;27913;42.722;23.268;2022-10-16T03:28:14;95471.22;;;6.04;76.99
42247;BME280;27913;42.722;23.268;2022-10-16T03:30:40;95769.75;;;7.84;77.58
42247;BME280;27913;42.722;23.268;2022-10-16T03:33:05;95765.34;;;7.84;77.46
42247;BME280;27913;42.722;23.268;2022-10-16T03:35:32;95761.09;;;7.83;77.50
42247;BME280;27913;42.722;23.268;2022-10-16T03:37:58;95760.56;;;7.80;77.62
42247;BME280;27913;42.722;23.268;2022-10-16T03:40:24;95758.53;;;7.73;77.61
42247;BME280;27913;42.722;23.268;2022-10-16T03:42:50;95497.63;;;6.11;77.95
42247;BME280;27913;42.722;23.268;2022-10-16T03:45:16;95658.19;;;7.10;78.81
42247;BME280;27913;42.722;23.268;2022-10-16T03:47:42;95652.81;;;7.11;78.84
42247;BME280;27913;42.722;23.268;2022-10-16T03:50:08;95762.66;;;7.76;78.68
42247;BME280;27913;42.722;23.268;2022-10-16T03:52:34;95760.19;;;7.75;78.53
42247;BME280;27913;42.722;23.268;2022-10-16T03:55:00;95536.91;;;6.38;78.22
42247;BME280;27913;42.722;23.268;2022-10-16T03:57:26;95669.84;;;7.16;79.15
42247;BME280;27913;42.722;23.268;2022-10-16T03:59:52;95753.75;;;7.69;79.76
42247;BME280;27913;42.722;23.268;2022-10-16T04:02:18;95443.66;;;5.74;80.04
42247;BME280;27913;42.722;23.268;2022-10-16T04:04:44;95470.75;;;5.91;80.26
42247;BME280;27913;42.722;23.268;2022-10-16T04:07:10;95734.75;;;7.48;80.69
42247;BME280;27913;42.722;23.268;2022-10-16T04:09:36;95760.78;;;7.68;80.43
42247;BME280;27913;42.722;23.268;2022-10-16T04:12:02;95758.00;;;7.70;80.50
42247;BME280;27913;42.722;23.268;2022-10-16T04:14:28;95762.97;;;7.73;80.72
42247;BME280;27913;42.722;23.268;2022-10-16T04:16:54;95574.34;;;6.57;80.10
42247;BME280;27913;42.722;23.268;2022-10-16T04:19:20;95471.78;;;5.80;80.44
42247;BME280;27913;42.722;23.268;2022-10-16T04:21:46;95560.56;;;6.36;80.81
42247;BME280;27913;42.722;23.268;2022-10-16T04:24:11;95656.53;;;6.91;81.14
42247;BME280;27913;42.722;23.268;2022-10-16T04:26:39;95732.50;;;7.35;81.65
42247;BME280;27913;42.722;23.268;2022-10-16T04:29:05;95588.50;;;6.36;80.32
42247;BME280;27913;42.722;23.268;2022-10-16T04:31:31;95769.44;;;7.51;80.18
42247;BME280;27913;42.722;23.268;2022-10-16T04:33:57;95774.69;;;7.51;79.63
42247;BME280;27913;42.722;23.268;2022-10-16T04:36:23;95566.22;;;6.32;79.14
42247;BME280;27913;42.722;23.268;2022-10-16T04:38:49;95463.22;;;5.60;78.75
42247;BME280;27913;42.722;23.268;2022-10-16T04:41:15;95706.53;;;7.06;78.96
42247;BME280;27913;42.722;23.268;2022-10-16T04:43:40;95783.97;;;7.45;79.13
42247;BME280;27913;42.722;23.268;2022-10-16T04:46:06;95779.00;;;7.42;79.01
42247;BME280;27913;42.722;23.268;2022-10-16T04:48:32;95784.09;;;7.43;79.06
42247;BME280;27913;42.722;23.268;2022-10-16T04:50:58;95546.84;;;5.96;79.05
42247;BME280;27913;42.722;23.268;2022-10-16T04:53:24;95509.59;;;5.76;79.10
42247;BME280;27913;42.722;23.268;2022-10-16T04:55:50;95790.69;;;7.47;79.01
42247;BME280;27913;42.722;23.268;2022-10-16T04:58:16;95794.13;;;7.48;78.72
42247;BME280;27913;42.722;23.268;2022-10-16T05:00:42;95801.47;;;7.44;79.68
42247;BME280;27913;42.722;23.268;2022-10-16T05:03:09;95797.19;;;7.43;79.98
42247;BME280;27913;42.722;23.268;2022-10-16T05:05:35;95800.78;;;7.42;79.96
42247;BME280;27913;42.722;23.268;2022-10-16T05:08:01;95811.78;;;7.46;80.25
42247;BME280;27913;42.722;23.268;2022-10-16T05:10:27;95519.50;;;5.72;79.82
42247;BME280;27913;42.722;23.268;2022-10-16T05:12:53;95733.63;;;7.15;80.04
42247;BME280;27913;42.722;23.268;2022-10-16T05:15:19;95699.50;;;6.88;79.46
42247;BME280;27913;42.722;23.268;2022-10-16T05:17:45;95631.72;;;6.48;79.88
42247;BME280;27913;42.722;23.268;2022-10-16T05:20:11;95785.91;;;7.43;79.80
42247;BME280;27913;42.722;23.268;2022-10-16T05:22:37;95807.16;;;7.58;80.05
42247;BME280;27913;42.722;23.268;2022-10-16T05:25:04;95520.41;;;5.81;80.09
42247;BME280;27913;42.722;23.268;2022-10-16T05:27:30;95666.59;;;6.67;80.38
42247;BME280;27913;42.722;23.268;2022-10-16T05:29:56;95620.22;;;6.41;80.32
42247;BME280;27913;42.722;23.268;2022-10-16T05:32:22;95752.69;;;7.25;80.23
42247;BME280;27913;42.722;23.268;2022-10-16T05:34:47;95825.13;;;7.71;80.32
42247;BME280;27913;42.722;23.268;2022-10-16T05:37:13;95792.56;;;7.55;80.19
42247;BME280;27913;42.722;23.268;2022-10-16T05:39:39;95701.84;;;7.09;80.18
42247;BME280;27913;42.722;23.268;2022-10-16T05:42:05;95824.88;;;7.82;80.45
42247;BME280;27913;42.722;23.268;2022-10-16T05:44:31;95829.69;;;7.87;80.80
42247;BME280;27913;42.722;23.268;2022-10-16T05:46:57;95615.56;;;6.63;80.62
42247;BME280;27913;42.722;23.268;2022-10-16T05:49:23;95830.88;;;7.93;81.53
42247;BME280;27913;42.722;23.268;2022-10-16T05:51:49;95600.47;;;6.57;81.75
42247;BME280;27913;42.722;23.268;2022-10-16T05:54:15;95719.88;;;7.31;81.93
42247;BME280;27913;42.722;23.268;2022-10-16T05:56:41;95829.63;;;7.97;81.96
42247;BME280;27913;42.722;23.268;2022-10-16T05:59:07;95619.53;;;6.67;81.85
42247;BME280;27913;42.722;23.268;2022-10-16T06:01:32;95767.97;;;7.48;81.73
42247;BME280;27913;42.722;23.268;2022-10-16T06:03:58;95857.53;;;7.88;82.57
42247;BME280;27913;42.722;23.268;2022-10-16T06:06:26;95846.97;;;7.80;82.85
42247;BME280;27913;42.722;23.268;2022-10-16T06:08:53;95749.88;;;7.08;83.66
42247;BME280;27913;42.722;23.268;2022-10-16T06:11:22;95729.84;;;6.99;83.94
42247;BME280;27913;42.722;23.268;2022-10-16T06:13:55;95863.13;;;7.75;84.34
42247;BME280;27913;42.722;23.268;2022-10-16T06:16:26;95857.22;;;7.73;84.60
42247;BME280;27913;42.722;23.268;2022-10-16T06:18:52;95827.19;;;7.49;84.78
42247;BME280;27913;42.722;23.268;2022-10-16T06:21:20;95645.31;;;6.52;85.12
42247;BME280;27913;42.722;23.268;2022-10-16T06:23:48;95817.25;;;7.53;84.96
42247;BME280;27913;42.722;23.268;2022-10-16T06:26:16;95875.78;;;7.80;85.45
42247;BME280;27913;42.722;23.268;2022-10-16T06:28:42;95768.16;;;7.18;85.85
42247;BME280;27913;42.722;23.268;2022-10-16T06:31:11;95883.91;;;7.77;85.93
42247;BME280;27913;42.722;23.268;2022-10-16T06:33:38;95886.81;;;7.73;86.45
42247;BME280;27913;42.722;23.268;2022-10-16T06:36:09;95881.44;;;7.75;86.83
42247;BME280;27913;42.722;23.268;2022-10-16T06:38:36;95884.28;;;7.82;87.45
42247;BME280;27913;42.722;23.268;2022-10-16T06:41:02;95593.03;;;6.06;86.86
42247;BME280;27913;42.722;23.268;2022-10-16T06:43:29;95632.63;;;6.29;86.82
42247;BME280;27913;42.722;23.268;2022-10-16T06:45:58;95882.19;;;7.85;87.12
42247;BME280;27913;42.722;23.268;2022-10-16T06:48:24;95901.53;;;7.84;87.16
42247;BME280;27913;42.722;23.268;2022-10-16T06:51:02;95897.34;;;7.92;87.37
42247;BME280;27913;42.722;23.268;2022-10-16T06:53:30;95742.25;;;6.97;87.34
42247;BME280;27913;42.722;23.268;2022-10-16T06:55:56;95853.78;;;7.72;86.81
42247;BME280;27913;42.722;23.268;2022-10-16T06:58:22;95900.72;;;8.02;86.85
42247;BME280;27913;42.722;23.268;2022-10-16T07:00:48;95856.31;;;7.64;86.57
42247;BME280;27913;42.722;23.268;2022-10-16T07:03:14;95908.13;;;8.07;87.03
42247;BME280;27913;42.722;23.268;2022-10-16T07:05:41;95905.97;;;8.20;86.66
42247;BME280;27913;42.722;23.268;2022-10-16T07:08:09;95699.38;;;7.08;86.06
42247;BME280;27913;42.722;23.268;2022-10-16T07:10:35;95911.19;;;8.39;85.52
42247;BME280;27913;42.722;23.268;2022-10-16T07:13:01;95906.41;;;8.34;85.08
42247;BME280;27913;42.722;23.268;2022-10-16T07:15:27;95763.53;;;7.48;84.80
42247;BME280;27913;42.722;23.268;2022-10-16T07:17:53;95911.09;;;8.49;84.38
42247;BME280;27913;42.722;23.268;2022-10-16T07:20:19;95739.69;;;7.52;84.11
42247;BME280;27913;42.722;23.268;2022-10-16T07:22:45;95912.03;;;8.57;84.45
42247;BME280;27913;42.722;23.268;2022-10-16T07:25:11;95629.94;;;6.95;84.18
42247;BME280;27913;42.722;23.268;2022-10-16T07:27:37;95915.25;;;8.69;84.00
42247;BME280;27913;42.722;23.268;2022-10-16T07:30:04;95913.50;;;8.78;84.14
42247;BME280;27913;42.722;23.268;2022-10-16T07:32:31;95912.41;;;8.89;83.64
42247;BME280;27913;42.722;23.268;2022-10-16T07:34:57;95865.66;;;8.58;83.12
42247;BME280;27913;42.722;23.268;2022-10-16T07:37:23;95930.03;;;8.97;82.76
42247;BME280;27913;42.722;23.268;2022-10-16T07:39:49;95923.19;;;9.04;82.60
42247;BME280;27913;42.722;23.268;2022-10-16T07:42:15;95911.91;;;9.12;81.65
42247;BME280;27913;42.722;23.268;2022-10-16T07:44:41;95764.47;;;8.20;81.23
42247;BME280;27913;42.722;23.268;2022-10-16T07:47:07;95922.16;;;9.24;81.62
42247;BME280;27913;42.722;23.268;2022-10-16T07:49:33;95915.31;;;9.31;81.43
42247;BME280;27913;42.722;23.268;2022-10-16T07:51:59;95610.63;;;7.51;81.44
42247;BME280;27913;42.722;23.268;2022-10-16T07:54:24;95820.44;;;8.91;80.24
42247;BME280;27913;42.722;23.268;2022-10-16T07:56:50;95678.78;;;8.13;80.14
42247;BME280;27913;42.722;23.268;2022-10-16T07:59:16;95636.19;;;7.84;79.24
42247;BME280;27913;42.722;23.268;2022-10-16T08:01:42;95924.97;;;9.74;79.10
42247;BME280;27913;42.722;23.268;2022-10-16T08:04:08;95785.72;;;8.97;79.41
42247;BME280;27913;42.722;23.268;2022-10-16T08:06:38;95907.13;;;9.86;79.01
42247;BME280;27913;42.722;23.268;2022-10-16T08:09:05;95933.13;;;10.06;78.31
42247;BME280;27913;42.722;23.268;2022-10-16T08:11:32;95700.09;;;8.79;78.11
42247;BME280;27913;42.722;23.268;2022-10-16T08:13:58;95653.13;;;8.60;76.92
42247;BME280;27913;42.722;23.268;2022-10-16T08:16:24;95861.00;;;9.91;77.09
42247;BME280;27913;42.722;23.268;2022-10-16T08:18:50;95915.94;;;10.36;77.24
42247;BME280;27913;42.722;23.268;2022-10-16T08:21:18;95918.72;;;10.43;76.50
42247;BME280;27913;42.722;23.268;2022-10-16T08:23:44;95908.56;;;10.48;76.77
42247;BME280;27913;42.722;23.268;2022-10-16T08:26:11;95922.22;;;10.60;76.48
42247;BME280;27913;42.722;23.268;2022-10-16T08:28:37;95914.81;;;10.72;76.01
42247;BME280;27913;42.722;23.268;2022-10-16T08:31:08;95915.63;;;10.81;75.23
42247;BME280;27913;42.722;23.268;2022-10-16T08:33:34;95908.72;;;10.89;75.06
42247;BME280;27913;42.722;23.268;2022-10-16T08:36:01;95918.25;;;10.98;74.08
42247;BME280;27913;42.722;23.268;2022-10-16T08:38:26;95915.94;;;11.03;73.56
42247;BME280;27913;42.722;23.268;2022-10-16T08:40:55;95908.69;;;11.14;72.80
42247;BME280;27913;42.722;23.268;2022-10-16T08:43:59;95708.75;;;9.98;72.73
42247;BME280;27913;42.722;23.268;2022-10-16T08:49:22;95894.47;;;11.31;72.24
42247;BME280;27913;42.722;23.268;2022-10-16T08:51:50;95902.69;;;11.37;71.31
42247;BME280;27913;42.722;23.268;2022-10-16T08:54:26;95878.84;;;11.30;71.48
42247;BME280;27913;42.722;23.268;2022-10-16T08:56:56;95912.31;;;11.61;70.39
42247;BME280;27913;42.722;23.268;2022-10-16T08:59:22;95710.00;;;10.44;70.31
42247;BME280;27913;42.722;23.268;2022-10-16T09:01:50;95886.16;;;11.59;69.75
42247;BME280;27913;42.722;23.268;2022-10-16T09:04:53;95859.03;;;11.51;68.39
42247;BME280;27913;42.722;23.268;2022-10-16T09:13:14;95911.25;;;12.11;64.79
42247;BME280;27913;42.722;23.268;2022-10-16T09:21:09;95899.03;;;12.18;60.83
42247;BME280;27913;42.722;23.268;2022-10-16T09:23:39;95899.63;;;12.28;62.33
42247;BME280;27913;42.722;23.268;2022-10-16T09:26:05;95685.81;;;10.97;61.96
42247;BME280;27913;42.722;23.268;2022-10-16T09:28:34;95911.22;;;12.42;62.28
42247;BME280;27913;42.722;23.268;2022-10-16T09:31:00;95911.69;;;12.46;61.94
42247;BME280;27913;42.722;23.268;2022-10-16T09:33:34;95830.94;;;11.98;61.51
42247;BME280;27913;42.722;23.268;2022-10-16T09:36:03;95648.69;;;10.92;60.43
42247;BME280;27913;42.722;23.268;2022-10-16T09:38:34;95844.84;;;12.15;61.54
42247;BME280;27913;42.722;23.268;2022-10-16T09:41:13;95824.13;;;12.04;59.93
42247;BME280;27913;42.722;23.268;2022-10-16T09:43:55;95694.47;;;11.38;60.54
42247;BME280;27913;42.722;23.268;2022-10-16T09:46:25;95658.84;;;11.27;60.09
42247;BME280;27913;42.722;23.268;2022-10-16T09:48:54;95649.94;;;11.28;59.86
42247;BME280;27913;42.722;23.268;2022-10-16T09:53:47;95701.72;;;11.83;59.26
42247;BME280;27913;42.722;23.268;2022-10-16T09:56:22;95643.66;;;11.53;57.52
42247;BME280;27913;42.722;23.268;2022-10-16T09:58:57;95892.16;;;13.09;58.52
42247;BME280;27913;42.722;23.268;2022-10-16T10:01:29;95891.28;;;13.17;59.13
42247;BME280;27913;42.722;23.268;2022-10-16T10:03:56;95659.25;;;11.78;57.85
42247;BME280;27913;42.722;23.268;2022-10-16T10:06:27;95882.69;;;13.30;57.29
42247;BME280;27913;42.722;23.268;2022-10-16T10:08:58;95878.53;;;13.21;57.59
42247;BME280;27913;42.722;23.268;2022-10-16T10:11:53;95877.59;;;13.28;57.50
42247;BME280;27913;42.722;23.268;2022-10-16T10:14:34;95877.59;;;13.28;57.85
42247;BME280;27913;42.722;23.268;2022-10-16T10:17:11;95837.19;;;13.13;57.00
42247;BME280;27913;42.722;23.268;2022-10-16T10:24:44;95607.84;;;11.82;56.37
42247;BME280;27913;42.722;23.268;2022-10-16T10:27:16;95873.59;;;13.48;56.48
42247;BME280;27913;42.722;23.268;2022-10-16T10:35:20;95709.66;;;12.52;56.86
42247;BME280;27913;42.722;23.268;2022-10-16T10:55:10;95836.44;;;13.86;56.00
42247;BME280;27913;42.722;23.268;2022-10-16T11:06:08;95803.16;;;13.92;53.55
42247;BME280;27913;42.722;23.268;2022-10-16T11:08:48;95801.22;;;14.01;53.62
42247;BME280;27913;42.722;23.268;2022-10-16T11:11:26;95789.81;;;14.00;53.61
42247;BME280;27913;42.722;23.268;2022-10-16T11:14:14;95836.09;;;14.33;53.37
42247;BME280;27913;42.722;23.268;2022-10-16T11:16:54;95835.13;;;14.41;52.98
42247;BME280;27913;42.722;23.268;2022-10-16T11:19:31;95830.09;;;14.46;51.57
42247;BME280;27913;42.722;23.268;2022-10-16T11:22:35;95793.34;;;14.30;51.35
42247;BME280;27913;42.722;23.268;2022-10-16T11:30:51;95772.56;;;14.27;52.41
42247;BME280;27913;42.722;23.268;2022-10-16T11:36:15;95695.59;;;13.93;51.09
42247;BME280;27913;42.722;23.268;2022-10-16T11:41:53;95803.41;;;16.44;45.79
42247;BME280;27913;42.722;23.268;2022-10-16T11:46:58;95808.09;;;16.76;44.06
42247;BME280;27913;42.722;23.268;2022-10-16T11:49:31;95814.84;;;16.31;45.51
42247;BME280;27913;42.722;23.268;2022-10-16T11:52:07;95813.53;;;15.93;45.82
42247;BME280;27913;42.722;23.268;2022-10-16T11:54:51;95748.97;;;15.45;45.81
42247;BME280;27913;42.722;23.268;2022-10-16T11:57:24;95598.22;;;14.39;45.77
42247;BME280;27913;42.722;23.268;2022-10-16T12:08:18;95810.81;;;15.66;45.44
42247;BME280;27913;42.722;23.268;2022-10-16T12:10:46;95592.72;;;14.40;46.11
42247;BME280;27913;42.722;23.268;2022-10-16T12:16:19;95805.38;;;15.94;45.36
42247;BME280;27913;42.722;23.268;2022-10-16T12:18:46;95719.41;;;15.48;45.58
42247;BME280;27913;42.722;23.268;2022-10-16T12:21:16;95808.06;;;16.15;46.06
42247;BME280;27913;42.722;23.268;2022-10-16T12:23:52;95717.81;;;15.67;46.15
42247;BME280;27913;42.722;23.268;2022-10-16T12:26:27;95798.28;;;16.22;45.96
42247;BME280;27913;42.722;23.268;2022-10-16T12:28:54;95737.81;;;15.84;45.35
42247;BME280;27913;42.722;23.268;2022-10-16T12:31:20;95574.00;;;14.97;45.52
42247;BME280;27913;42.722;23.268;2022-10-16T12:33:58;95772.59;;;16.23;44.83
42247;BME280;27913;42.722;23.268;2022-10-16T12:36:30;95805.03;;;16.52;44.77
42247;BME280;27913;42.722;23.268;2022-10-16T12:38:57;95749.91;;;16.13;44.16
42247;BME280;27913;42.722;23.268;2022-10-16T12:41:29;95728.06;;;16.11;44.02
42247;BME280;27913;42.722;23.268;2022-10-16T12:43:55;95625.63;;;15.56;43.37
42247;BME280;27913;42.722;23.268;2022-10-16T12:46:26;95746.03;;;16.43;43.37
42247;BME280;27913;42.722;23.268;2022-10-16T12:51:38;95559.56;;;15.27;42.71
42247;BME280;27913;42.722;23.268;2022-10-16T12:54:16;95680.13;;;16.06;43.25
42247;BME280;27913;42.722;23.268;2022-10-16T13:00:04;95614.44;;;15.74;40.87
42247;BME280;27913;42.722;23.268;2022-10-16T13:07:59;95758.22;;;16.78;42.04
42247;BME280;27913;42.722;23.268;2022-10-16T13:10:32;95765.16;;;16.86;42.37
42247;BME280;27913;42.722;23.268;2022-10-16T13:15:39;95807.53;;;17.40;41.06
42247;BME280;27913;42.722;23.268;2022-10-16T13:20:59;95758.97;;;17.19;38.06
42247;BME280;27913;42.722;23.268;2022-10-16T13:28:39;95807.94;;;17.44;36.66
42247;BME280;27913;42.722;23.268;2022-10-16T13:31:05;95812.63;;;17.48;36.94
42247;BME280;27913;42.722;23.268;2022-10-16T13:33:45;95629.41;;;16.48;37.55
42247;BME280;27913;42.722;23.268;2022-10-16T13:36:22;95642.69;;;16.62;37.66
42247;BME280;27913;42.722;23.268;2022-10-16T13:38:48;95822.47;;;17.87;37.95
42247;BME280;27913;42.722;23.268;2022-10-16T13:41:25;95627.91;;;16.73;37.69
42247;BME280;27913;42.722;23.268;2022-10-16T13:43:52;95825.38;;;17.79;38.03
42247;BME280;27913;42.722;23.268;2022-10-16T13:46:23;95778.84;;;17.56;38.21
42247;BME280;27913;42.722;23.268;2022-10-16T13:49:15;95737.03;;;17.31;36.61
42247;BME280;27913;42.722;23.268;2022-10-16T13:51:41;95658.88;;;16.93;36.85
42247;BME280;27913;42.722;23.268;2022-10-16T13:54:09;95769.56;;;17.72;36.20
42247;BME280;27913;42.722;23.268;2022-10-16T13:56:38;95703.91;;;17.33;36.05
42247;BME280;27913;42.722;23.268;2022-10-16T13:59:06;95833.16;;;18.19;35.36
42247;BME280;27913;42.722;23.268;2022-10-16T14:01:41;95832.75;;;18.16;34.86
42247;BME280;27913;42.722;23.268;2022-10-16T14:04:10;95781.97;;;17.85;35.06
42247;BME280;27913;42.722;23.268;2022-10-16T14:06:39;95828.13;;;18.04;34.78
42247;BME280;27913;42.722;23.268;2022-10-16T14:09:23;95838.97;;;18.03;35.06
42247;BME280;27913;42.722;23.268;2022-10-16T14:11:57;95833.28;;;17.92;35.05
42247;BME280;27913;42.722;23.268;2022-10-16T14:14:24;95716.69;;;17.04;35.39
42247;BME280;27913;42.722;23.268;2022-10-16T14:16:51;95760.41;;;17.22;35.44
42247;BME280;27913;42.722;23.268;2022-10-16T14:19:26;95821.88;;;17.85;35.89
42247;BME280;27913;42.722;23.268;2022-10-16T14:21:52;95652.78;;;16.85;35.33
42247;BME280;27913;42.722;23.268;2022-10-16T14:24:32;95716.19;;;17.27;35.20
42247;BME280;27913;42.722;23.268;2022-10-16T14:26:59;95836.88;;;18.05;34.90
42247;BME280;27913;42.722;23.268;2022-10-16T14:29:26;95783.81;;;17.84;34.64
42247;BME280;27913;42.722;23.268;2022-10-16T14:32:00;95838.19;;;17.95;34.81
42247;BME280;27913;42.722;23.268;2022-10-16T14:34:37;95610.84;;;16.48;34.82
42247;BME280;27913;42.722;23.268;2022-10-16T14:37:16;95797.94;;;17.85;34.78
42247;BME280;27913;42.722;23.268;2022-10-16T14:39:51;95849.06;;;17.87;35.45
42247;BME280;27913;42.722;23.268;2022-10-16T14:42:19;95848.66;;;17.90;35.30
42247;BME280;27913;42.722;23.268;2022-10-16T14:44:46;95855.88;;;17.76;35.62
42247;BME280;27913;42.722;23.268;2022-10-16T14:47:17;95855.75;;;17.50;36.02
42247;BME280;27913;42.722;23.268;2022-10-16T14:49:49;95612.97;;;15.85;36.24
42247;BME280;27913;42.722;23.268;2022-10-16T14:52:15;95859.09;;;17.39;36.71
42247;BME280;27913;42.722;23.268;2022-10-16T14:54:41;95856.88;;;17.09;36.32
42247;BME280;27913;42.722;23.268;2022-10-16T14:57:17;95773.63;;;16.22;36.83
42247;BME280;27913;42.722;23.268;2022-10-16T14:59:43;95873.66;;;16.62;37.16
42247;BME280;27913;42.722;23.268;2022-10-16T15:02:29;95871.59;;;16.37;37.26
42247;BME280;27913;42.722;23.268;2022-10-16T15:04:56;95873.97;;;16.04;38.64
42247;BME280;27913;42.722;23.268;2022-10-16T15:07:22;95877.88;;;16.02;38.94